sensor_id;sensor_type;location;lat;lon;timestamp;temperature;humidity
43772;HTU21D;59066;54.782;32.024;2022-11-14T00:02:38;7.10;64.17
43772;HTU21D;59066;54.782;32.024;2022-11-14T00:05:24;7.11;64.25
43772;HTU21D;59066;54.782;32.024;2022-11-14T00:08:19;7.07;64.50
43772;HTU21D;59066;54.782;32.024;2022-11-14T00:11:06;7.03;64.67
43772;HTU21D;59066;54.782;32.024;2022-11-14T00:13:52;7.01;64.81
43772;HTU21D;59066;54.782;32.024;2022-11-14T00:16:38;6.99;64.92
43772;HTU21D;59066;54.782;32.024;2022-11-14T00:19:24;6.98;64.93
43772;HTU21D;59066;54.782;32.024;2022-11-14T00:22:10;6.95;65.09
43772;HTU21D;59066;54.782;32.024;2022-11-14T00:24:56;6.94;65.14
43772;HTU21D;59066;54.782;32.024;2022-11-14T00:27:42;6.94;65.11
43772;HTU21D;59066;54.782;32.024;2022-11-14T00:30:28;6.94;65.11
43772;HTU21D;59066;54.782;32.024;2022-11-14T00:33:14;6.93;65.03
43772;HTU21D;59066;54.782;32.024;2022-11-14T00:36:04;6.96;64.84
43772;HTU21D;59066;54.782;32.024;2022-11-14T00:38:53;6.98;64.72
43772;HTU21D;59066;54.782;32.024;2022-11-14T00:41:40;6.96;64.66
43772;HTU21D;59066;54.782;32.024;2022-11-14T00:44:26;6.94;64.90
43772;HTU21D;59066;54.782;32.024;2022-11-14T00:47:11;6.98;64.98
43772;HTU21D;59066;54.782;32.024;2022-11-14T00:49:57;6.93;65.01
43772;HTU21D;59066;54.782;32.024;2022-11-14T00:52:43;6.87;65.28
43772;HTU21D;59066;54.782;32.024;2022-11-14T00:55:29;6.94;65.20
43772;HTU21D;59066;54.782;32.024;2022-11-14T00:58:16;6.91;65.33
43772;HTU21D;59066;54.782;32.024;2022-11-14T01:01:01;6.88;65.46
43772;HTU21D;59066;54.782;32.024;2022-11-14T01:03:50;6.87;65.44
43772;HTU21D;59066;54.782;32.024;2022-11-14T01:06:37;6.85;65.60
43772;HTU21D;59066;54.782;32.024;2022-11-14T01:09:23;6.83;65.53
43772;HTU21D;59066;54.782;32.024;2022-11-14T01:12:14;6.86;65.40
43772;HTU21D;59066;54.782;32.024;2022-11-14T01:15:00;6.88;65.37
43772;HTU21D;59066;54.782;32.024;2022-11-14T01:17:46;6.85;65.37
43772;HTU21D;59066;54.782;32.024;2022-11-14T01:20:32;6.86;65.05
43772;HTU21D;59066;54.782;32.024;2022-11-14T01:23:18;6.83;64.52
43772;HTU21D;59066;54.782;32.024;2022-11-14T01:26:09;6.79;64.37
43772;HTU21D;59066;54.782;32.024;2022-11-14T01:28:56;6.79;64.14
43772;HTU21D;59066;54.782;32.024;2022-11-14T01:31:41;6.78;64.14
43772;HTU21D;59066;54.782;32.024;2022-11-14T01:34:28;6.78;64.10
43772;HTU21D;59066;54.782;32.024;2022-11-14T01:37:13;6.76;64.19
43772;HTU21D;59066;54.782;32.024;2022-11-14T01:39:59;6.76;64.21
43772;HTU21D;59066;54.782;32.024;2022-11-14T01:46:00;6.73;64.29
43772;HTU21D;59066;54.782;32.024;2022-11-14T01:49:20;6.73;64.22
43772;HTU21D;59066;54.782;32.024;2022-11-14T01:52:19;6.73;64.21
43772;HTU21D;59066;54.782;32.024;2022-11-14T01:55:08;6.71;64.29
43772;HTU21D;59066;54.782;32.024;2022-11-14T01:57:54;6.72;64.37
43772;HTU21D;59066;54.782;32.024;2022-11-14T02:00:42;6.78;64.31
43772;HTU21D;59066;54.782;32.024;2022-11-14T02:03:28;6.74;64.27
43772;HTU21D;59066;54.782;32.024;2022-11-14T02:06:21;6.72;64.38
43772;HTU21D;59066;54.782;32.024;2022-11-14T02:09:07;6.71;64.49
43772;HTU21D;59066;54.782;32.024;2022-11-14T02:11:55;6.74;64.49
43772;HTU21D;59066;54.782;32.024;2022-11-14T02:14:44;6.78;64.39
43772;HTU21D;59066;54.782;32.024;2022-11-14T02:17:31;6.72;64.54
43772;HTU21D;59066;54.782;32.024;2022-11-14T02:20:23;6.71;64.62
43772;HTU21D;59066;54.782;32.024;2022-11-14T02:23:10;6.70;64.70
43772;HTU21D;59066;54.782;32.024;2022-11-14T02:25:57;6.66;64.68
43772;HTU21D;59066;54.782;32.024;2022-11-14T02:28:44;6.64;64.76
43772;HTU21D;59066;54.782;32.024;2022-11-14T02:31:30;6.60;64.85
43772;HTU21D;59066;54.782;32.024;2022-11-14T02:34:16;6.59;64.91
43772;HTU21D;59066;54.782;32.024;2022-11-14T02:37:05;6.64;64.85
43772;HTU21D;59066;54.782;32.024;2022-11-14T02:39:51;6.63;64.87
43772;HTU21D;59066;54.782;32.024;2022-11-14T02:42:37;6.53;65.01
43772;HTU21D;59066;54.782;32.024;2022-11-14T02:45:23;6.54;65.16
43772;HTU21D;59066;54.782;32.024;2022-11-14T02:48:09;6.58;65.19
43772;HTU21D;59066;54.782;32.024;2022-11-14T02:50:55;6.59;65.14
43772;HTU21D;59066;54.782;32.024;2022-11-14T02:53:41;6.58;65.21
43772;HTU21D;59066;54.782;32.024;2022-11-14T02:56:27;6.60;65.22
43772;HTU21D;59066;54.782;32.024;2022-11-14T02:59:13;6.66;65.19
43772;HTU21D;59066;54.782;32.024;2022-11-14T03:01:59;6.63;65.27
43772;HTU21D;59066;54.782;32.024;2022-11-14T03:04:44;6.60;65.35
43772;HTU21D;59066;54.782;32.024;2022-11-14T03:07:30;6.59;65.37
43772;HTU21D;59066;54.782;32.024;2022-11-14T03:10:17;6.63;65.46
43772;HTU21D;59066;54.782;32.024;2022-11-14T03:13:03;6.60;65.49
43772;HTU21D;59066;54.782;32.024;2022-11-14T03:15:48;6.58;65.56
43772;HTU21D;59066;54.782;32.024;2022-11-14T03:18:35;6.54;65.67
43772;HTU21D;59066;54.782;32.024;2022-11-14T03:21:21;6.49;65.68
43772;HTU21D;59066;54.782;32.024;2022-11-14T03:24:08;6.52;65.62
43772;HTU21D;59066;54.782;32.024;2022-11-14T03:26:53;6.53;65.69
43772;HTU21D;59066;54.782;32.024;2022-11-14T03:29:39;6.51;65.42
43772;HTU21D;59066;54.782;32.024;2022-11-14T03:32:25;6.52;65.19
43772;HTU21D;59066;54.782;32.024;2022-11-14T03:35:11;6.53;65.08
43772;HTU21D;59066;54.782;32.024;2022-11-14T03:37:57;6.52;64.92
43772;HTU21D;59066;54.782;32.024;2022-11-14T03:40:43;6.44;64.58
43772;HTU21D;59066;54.782;32.024;2022-11-14T03:43:32;6.38;64.65
43772;HTU21D;59066;54.782;32.024;2022-11-14T03:46:18;6.41;64.49
43772;HTU21D;59066;54.782;32.024;2022-11-14T03:49:04;6.31;64.31
43772;HTU21D;59066;54.782;32.024;2022-11-14T03:51:50;6.29;64.27
43772;HTU21D;59066;54.782;32.024;2022-11-14T03:54:37;6.22;63.87
43772;HTU21D;59066;54.782;32.024;2022-11-14T03:57:23;6.16;63.77
43772;HTU21D;59066;54.782;32.024;2022-11-14T04:00:09;6.13;63.47
43772;HTU21D;59066;54.782;32.024;2022-11-14T04:02:56;6.16;63.37
43772;HTU21D;59066;54.782;32.024;2022-11-14T04:05:43;6.12;63.27
43772;HTU21D;59066;54.782;32.024;2022-11-14T04:08:30;6.12;63.25
43772;HTU21D;59066;54.782;32.024;2022-11-14T04:11:17;6.07;63.15
43772;HTU21D;59066;54.782;32.024;2022-11-14T04:14:03;6.05;63.15
43772;HTU21D;59066;54.782;32.024;2022-11-14T04:16:48;6.07;63.16
43772;HTU21D;59066;54.782;32.024;2022-11-14T04:19:34;6.06;63.11
43772;HTU21D;59066;54.782;32.024;2022-11-14T04:22:20;6.05;63.08
43772;HTU21D;59066;54.782;32.024;2022-11-14T04:25:07;6.05;62.86
43772;HTU21D;59066;54.782;32.024;2022-11-14T04:27:54;6.01;62.89
43772;HTU21D;59066;54.782;32.024;2022-11-14T04:30:40;6.02;62.75
43772;HTU21D;59066;54.782;32.024;2022-11-14T04:33:27;6.06;62.71
43772;HTU21D;59066;54.782;32.024;2022-11-14T04:36:13;6.02;62.76
43772;HTU21D;59066;54.782;32.024;2022-11-14T04:38:59;6.00;62.87
43772;HTU21D;59066;54.782;32.024;2022-11-14T04:41:45;5.97;62.91
43772;HTU21D;59066;54.782;32.024;2022-11-14T04:44:31;5.98;62.98
43772;HTU21D;59066;54.782;32.024;2022-11-14T04:47:17;5.93;63.16
43772;HTU21D;59066;54.782;32.024;2022-11-14T04:50:03;5.85;63.31
43772;HTU21D;59066;54.782;32.024;2022-11-14T04:52:52;5.81;63.44
43772;HTU21D;59066;54.782;32.024;2022-11-14T04:55:38;5.78;63.50
43772;HTU21D;59066;54.782;32.024;2022-11-14T04:58:24;5.72;63.58
43772;HTU21D;59066;54.782;32.024;2022-11-14T05:01:12;5.70;63.60
43772;HTU21D;59066;54.782;32.024;2022-11-14T05:03:58;5.65;63.69
43772;HTU21D;59066;54.782;32.024;2022-11-14T05:06:44;5.57;63.97
43772;HTU21D;59066;54.782;32.024;2022-11-14T05:09:30;5.59;63.96
43772;HTU21D;59066;54.782;32.024;2022-11-14T05:12:16;5.56;64.03
43772;HTU21D;59066;54.782;32.024;2022-11-14T05:15:02;5.52;64.14
43772;HTU21D;59066;54.782;32.024;2022-11-14T05:17:48;5.49;64.21
43772;HTU21D;59066;54.782;32.024;2022-11-14T05:20:34;5.55;64.16
43772;HTU21D;59066;54.782;32.024;2022-11-14T05:23:22;5.56;64.27
43772;HTU21D;59066;54.782;32.024;2022-11-14T05:26:11;5.62;64.19
43772;HTU21D;59066;54.782;32.024;2022-11-14T05:28:57;5.66;64.33
43772;HTU21D;59066;54.782;32.024;2022-11-14T05:31:46;5.68;64.40
43772;HTU21D;59066;54.782;32.024;2022-11-14T05:34:32;5.67;64.56
43772;HTU21D;59066;54.782;32.024;2022-11-14T05:37:18;5.71;64.69
43772;HTU21D;59066;54.782;32.024;2022-11-14T05:40:05;5.72;64.89
43772;HTU21D;59066;54.782;32.024;2022-11-14T05:42:53;5.76;65.17
43772;HTU21D;59066;54.782;32.024;2022-11-14T05:45:40;5.79;65.11
43772;HTU21D;59066;54.782;32.024;2022-11-14T05:48:26;5.71;65.53
43772;HTU21D;59066;54.782;32.024;2022-11-14T05:51:12;5.74;65.79
43772;HTU21D;59066;54.782;32.024;2022-11-14T05:53:58;5.77;65.92
43772;HTU21D;59066;54.782;32.024;2022-11-14T05:56:44;5.72;66.22
43772;HTU21D;59066;54.782;32.024;2022-11-14T05:59:29;5.69;66.67
43772;HTU21D;59066;54.782;32.024;2022-11-14T06:02:15;5.65;66.98
43772;HTU21D;59066;54.782;32.024;2022-11-14T06:05:01;5.61;67.34
43772;HTU21D;59066;54.782;32.024;2022-11-14T06:07:54;5.52;67.43
43772;HTU21D;59066;54.782;32.024;2022-11-14T06:10:39;5.38;67.88
43772;HTU21D;59066;54.782;32.024;2022-11-14T06:13:25;5.38;68.06
43772;HTU21D;59066;54.782;32.024;2022-11-14T06:16:14;5.38;68.07
43772;HTU21D;59066;54.782;32.024;2022-11-14T06:19:00;5.30;68.42
43772;HTU21D;59066;54.782;32.024;2022-11-14T06:21:46;5.37;68.22
43772;HTU21D;59066;54.782;32.024;2022-11-14T06:24:31;5.33;68.27
43772;HTU21D;59066;54.782;32.024;2022-11-14T06:27:17;5.36;68.05
43772;HTU21D;59066;54.782;32.024;2022-11-14T06:30:03;5.35;68.12
43772;HTU21D;59066;54.782;32.024;2022-11-14T06:32:55;5.35;68.04
43772;HTU21D;59066;54.782;32.024;2022-11-14T06:35:42;5.36;68.02
43772;HTU21D;59066;54.782;32.024;2022-11-14T06:38:30;5.35;67.80
43772;HTU21D;59066;54.782;32.024;2022-11-14T06:41:19;5.35;67.45
43772;HTU21D;59066;54.782;32.024;2022-11-14T06:44:07;5.32;67.17
43772;HTU21D;59066;54.782;32.024;2022-11-14T06:46:53;5.34;66.93
43772;HTU21D;59066;54.782;32.024;2022-11-14T06:49:39;5.33;66.50
43772;HTU21D;59066;54.782;32.024;2022-11-14T06:52:25;5.33;66.20
43772;HTU21D;59066;54.782;32.024;2022-11-14T06:55:11;5.40;66.06
43772;HTU21D;59066;54.782;32.024;2022-11-14T06:57:57;5.47;65.79
43772;HTU21D;59066;54.782;32.024;2022-11-14T07:00:43;5.51;65.53
43772;HTU21D;59066;54.782;32.024;2022-11-14T07:03:29;5.50;64.69
43772;HTU21D;59066;54.782;32.024;2022-11-14T07:06:17;5.45;64.46
43772;HTU21D;59066;54.782;32.024;2022-11-14T07:09:04;5.41;64.27
43772;HTU21D;59066;54.782;32.024;2022-11-14T07:11:50;5.50;63.92
43772;HTU21D;59066;54.782;32.024;2022-11-14T07:14:36;5.56;63.71
43772;HTU21D;59066;54.782;32.024;2022-11-14T07:17:22;5.67;63.50
43772;HTU21D;59066;54.782;32.024;2022-11-14T07:20:12;5.68;63.05
43772;HTU21D;59066;54.782;32.024;2022-11-14T07:22:58;5.67;63.04
43772;HTU21D;59066;54.782;32.024;2022-11-14T07:25:44;5.68;62.88
43772;HTU21D;59066;54.782;32.024;2022-11-14T07:28:30;5.74;62.80
43772;HTU21D;59066;54.782;32.024;2022-11-14T07:31:18;5.77;62.53
43772;HTU21D;59066;54.782;32.024;2022-11-14T07:34:04;5.89;62.50
43772;HTU21D;59066;54.782;32.024;2022-11-14T07:36:50;5.91;62.18
43772;HTU21D;59066;54.782;32.024;2022-11-14T07:39:36;5.98;62.32
43772;HTU21D;59066;54.782;32.024;2022-11-14T07:42:22;6.01;62.18
43772;HTU21D;59066;54.782;32.024;2022-11-14T07:45:09;5.93;61.78
43772;HTU21D;59066;54.782;32.024;2022-11-14T07:47:57;5.94;61.51
43772;HTU21D;59066;54.782;32.024;2022-11-14T07:50:44;5.82;61.07
43772;HTU21D;59066;54.782;32.024;2022-11-14T07:53:31;5.80;60.58
43772;HTU21D;59066;54.782;32.024;2022-11-14T07:56:18;5.81;60.06
43772;HTU21D;59066;54.782;32.024;2022-11-14T07:59:05;5.86;59.74
43772;HTU21D;59066;54.782;32.024;2022-11-14T08:01:50;5.93;59.79
43772;HTU21D;59066;54.782;32.024;2022-11-14T08:04:36;5.96;59.24
43772;HTU21D;59066;54.782;32.024;2022-11-14T08:07:22;6.01;58.77
43772;HTU21D;59066;54.782;32.024;2022-11-14T08:10:09;5.96;58.50
43772;HTU21D;59066;54.782;32.024;2022-11-14T08:12:58;5.86;57.68
43772;HTU21D;59066;54.782;32.024;2022-11-14T08:16:06;5.79;57.99
43772;HTU21D;59066;54.782;32.024;2022-11-14T08:18:57;5.65;57.73
43772;HTU21D;59066;54.782;32.024;2022-11-14T08:21:43;5.62;57.53
43772;HTU21D;59066;54.782;32.024;2022-11-14T08:24:29;5.71;57.40
43772;HTU21D;59066;54.782;32.024;2022-11-14T08:27:15;5.64;57.07
43772;HTU21D;59066;54.782;32.024;2022-11-14T08:30:01;5.69;57.12
43772;HTU21D;59066;54.782;32.024;2022-11-14T08:32:47;5.82;57.03
43772;HTU21D;59066;54.782;32.024;2022-11-14T08:35:33;5.78;56.32
43772;HTU21D;59066;54.782;32.024;2022-11-14T08:38:19;5.72;56.61
43772;HTU21D;59066;54.782;32.024;2022-11-14T08:41:05;5.75;56.52
43772;HTU21D;59066;54.782;32.024;2022-11-14T08:43:51;5.77;56.32
43772;HTU21D;59066;54.782;32.024;2022-11-14T08:46:36;5.86;56.54
43772;HTU21D;59066;54.782;32.024;2022-11-14T08:49:22;5.96;56.42
43772;HTU21D;59066;54.782;32.024;2022-11-14T08:52:08;5.99;56.27
43772;HTU21D;59066;54.782;32.024;2022-11-14T08:55:00;5.95;56.03
43772;HTU21D;59066;54.782;32.024;2022-11-14T08:57:46;5.83;56.16
43772;HTU21D;59066;54.782;32.024;2022-11-14T09:00:34;5.78;56.17
43772;HTU21D;59066;54.782;32.024;2022-11-14T09:03:20;5.84;56.22
43772;HTU21D;59066;54.782;32.024;2022-11-14T09:06:06;5.98;56.13
43772;HTU21D;59066;54.782;32.024;2022-11-14T09:08:52;6.08;55.76
43772;HTU21D;59066;54.782;32.024;2022-11-14T09:11:38;6.01;55.82
43772;HTU21D;59066;54.782;32.024;2022-11-14T09:14:24;6.04;55.87
43772;HTU21D;59066;54.782;32.024;2022-11-14T09:17:10;5.85;55.65
43772;HTU21D;59066;54.782;32.024;2022-11-14T09:19:56;5.79;55.44
43772;HTU21D;59066;54.782;32.024;2022-11-14T09:22:42;5.66;55.35
43772;HTU21D;59066;54.782;32.024;2022-11-14T09:25:29;5.61;55.44
43772;HTU21D;59066;54.782;32.024;2022-11-14T09:28:15;5.65;55.36
43772;HTU21D;59066;54.782;32.024;2022-11-14T09:31:07;5.60;55.36
43772;HTU21D;59066;54.782;32.024;2022-11-14T09:33:53;5.60;55.43
43772;HTU21D;59066;54.782;32.024;2022-11-14T09:36:39;5.62;55.37
43772;HTU21D;59066;54.782;32.024;2022-11-14T09:39:25;5.63;55.22
43772;HTU21D;59066;54.782;32.024;2022-11-14T09:45:19;5.64;54.94
43772;HTU21D;59066;54.782;32.024;2022-11-14T09:48:13;5.76;54.53
43772;HTU21D;59066;54.782;32.024;2022-11-14T09:51:07;5.70;54.76
43772;HTU21D;59066;54.782;32.024;2022-11-14T09:57:02;5.92;54.91
43772;HTU21D;59066;54.782;32.024;2022-11-14T09:59:48;6.14;54.88
43772;HTU21D;59066;54.782;32.024;2022-11-14T10:02:45;6.41;54.39
43772;HTU21D;59066;54.782;32.024;2022-11-14T10:05:54;6.28;54.17
43772;HTU21D;59066;54.782;32.024;2022-11-14T10:20:53;6.21;53.98
43772;HTU21D;59066;54.782;32.024;2022-11-14T10:26:59;7.89;54.01
43772;HTU21D;59066;54.782;32.024;2022-11-14T10:39:16;12.56;46.45
43772;HTU21D;59066;54.782;32.024;2022-11-14T10:42:10;13.54;46.52
43772;HTU21D;59066;54.782;32.024;2022-11-14T10:45:49;14.26;44.55
43772;HTU21D;59066;54.782;32.024;2022-11-14T10:48:24;14.41;43.07
43772;HTU21D;59066;54.782;32.024;2022-11-14T10:51:37;13.99;41.19
43772;HTU21D;59066;54.782;32.024;2022-11-14T10:57:19;12.21;44.42
43772;HTU21D;59066;54.782;32.024;2022-11-14T11:00:21;11.41;43.17
43772;HTU21D;59066;54.782;32.024;2022-11-14T11:03:08;10.70;44.06
43772;HTU21D;59066;54.782;32.024;2022-11-14T11:05:54;10.19;44.33
43772;HTU21D;59066;54.782;32.024;2022-11-14T11:09:07;10.05;43.65
43772;HTU21D;59066;54.782;32.024;2022-11-14T11:12:18;10.38;43.29
43772;HTU21D;59066;54.782;32.024;2022-11-14T11:18:05;10.54;42.39
43772;HTU21D;59066;54.782;32.024;2022-11-14T11:21:04;10.22;42.77
43772;HTU21D;59066;54.782;32.024;2022-11-14T11:23:53;9.63;43.25
43772;HTU21D;59066;54.782;32.024;2022-11-14T11:26:39;9.09;43.79
43772;HTU21D;59066;54.782;32.024;2022-11-14T11:29:25;8.76;44.11
43772;HTU21D;59066;54.782;32.024;2022-11-14T11:32:23;8.59;44.22
43772;HTU21D;59066;54.782;32.024;2022-11-14T11:35:13;8.24;44.79
43772;HTU21D;59066;54.782;32.024;2022-11-14T11:38:01;8.02;44.96
43772;HTU21D;59066;54.782;32.024;2022-11-14T11:40:50;7.74;45.37
43772;HTU21D;59066;54.782;32.024;2022-11-14T11:43:44;8.39;45.12
43772;HTU21D;59066;54.782;32.024;2022-11-14T11:55:43;10.40;43.04
43772;HTU21D;59066;54.782;32.024;2022-11-14T11:58:43;10.81;43.26
43772;HTU21D;59066;54.782;32.024;2022-11-14T12:01:30;11.37;42.97
43772;HTU21D;59066;54.782;32.024;2022-11-14T12:04:17;11.70;42.25
43772;HTU21D;59066;54.782;32.024;2022-11-14T12:07:13;11.86;40.68
43772;HTU21D;59066;54.782;32.024;2022-11-14T12:10:09;12.05;40.75
43772;HTU21D;59066;54.782;32.024;2022-11-14T12:25:37;11.87;38.29
43772;HTU21D;59066;54.782;32.024;2022-11-14T12:28:53;11.34;39.56
43772;HTU21D;59066;54.782;32.024;2022-11-14T12:31:46;11.11;40.48
43772;HTU21D;59066;54.782;32.024;2022-11-14T12:34:36;10.92;40.58
43772;HTU21D;59066;54.782;32.024;2022-11-14T12:37:33;11.11;39.62
43772;HTU21D;59066;54.782;32.024;2022-11-14T12:40:22;11.08;39.88
43772;HTU21D;59066;54.782;32.024;2022-11-14T12:46:19;9.80;40.77
43772;HTU21D;59066;54.782;32.024;2022-11-14T12:58:48;7.56;43.67
43772;HTU21D;59066;54.782;32.024;2022-11-14T13:07:58;6.60;44.97
43772;HTU21D;59066;54.782;32.024;2022-11-14T13:10:49;6.40;44.80
43772;HTU21D;59066;54.782;32.024;2022-11-14T13:14:01;6.31;45.69
43772;HTU21D;59066;54.782;32.024;2022-11-14T13:20:27;5.89;46.18
43772;HTU21D;59066;54.782;32.024;2022-11-14T13:23:53;5.74;46.94
43772;HTU21D;59066;54.782;32.024;2022-11-14T13:26:53;5.70;46.97
43772;HTU21D;59066;54.782;32.024;2022-11-14T13:35:49;5.35;48.24
43772;HTU21D;59066;54.782;32.024;2022-11-14T13:38:57;5.25;48.57
43772;HTU21D;59066;54.782;32.024;2022-11-14T13:42:10;5.18;48.74
43772;HTU21D;59066;54.782;32.024;2022-11-14T13:51:09;4.97;49.08
43772;HTU21D;59066;54.782;32.024;2022-11-14T13:54:17;4.87;48.73
43772;HTU21D;59066;54.782;32.024;2022-11-14T14:00:12;4.74;49.67
43772;HTU21D;59066;54.782;32.024;2022-11-14T14:06:44;4.72;50.63
43772;HTU21D;59066;54.782;32.024;2022-11-14T14:16:10;4.63;50.65
43772;HTU21D;59066;54.782;32.024;2022-11-14T14:19:15;4.60;50.58
43772;HTU21D;59066;54.782;32.024;2022-11-14T14:22:21;4.59;50.79
43772;HTU21D;59066;54.782;32.024;2022-11-14T14:31:16;4.62;51.52
43772;HTU21D;59066;54.782;32.024;2022-11-14T14:34:20;4.61;51.66
43772;HTU21D;59066;54.782;32.024;2022-11-14T14:37:24;4.54;51.91
43772;HTU21D;59066;54.782;32.024;2022-11-14T14:40:22;4.50;52.02
43772;HTU21D;59066;54.782;32.024;2022-11-14T14:43:29;4.49;52.32
43772;HTU21D;59066;54.782;32.024;2022-11-14T14:46:26;4.49;52.39
43772;HTU21D;59066;54.782;32.024;2022-11-14T14:49:21;4.49;52.42
43772;HTU21D;59066;54.782;32.024;2022-11-14T14:52:30;4.53;52.87
43772;HTU21D;59066;54.782;32.024;2022-11-14T14:55:35;4.48;53.04
43772;HTU21D;59066;54.782;32.024;2022-11-14T15:04:06;4.54;53.11
43772;HTU21D;59066;54.782;32.024;2022-11-14T15:06:53;4.51;53.17
43772;HTU21D;59066;54.782;32.024;2022-11-14T15:10:01;4.50;53.56
43772;HTU21D;59066;54.782;32.024;2022-11-14T15:12:48;4.45;53.47
43772;HTU21D;59066;54.782;32.024;2022-11-14T15:15:34;4.48;53.59
43772;HTU21D;59066;54.782;32.024;2022-11-14T15:18:26;4.49;53.91
43772;HTU21D;59066;54.782;32.024;2022-11-14T15:21:25;4.60;53.94
43772;HTU21D;59066;54.782;32.024;2022-11-14T15:24:17;4.68;53.77
43772;HTU21D;59066;54.782;32.024;2022-11-14T15:27:17;4.62;54.28
43772;HTU21D;59066;54.782;32.024;2022-11-14T15:30:06;4.56;54.22
43772;HTU21D;59066;54.782;32.024;2022-11-14T15:32:55;4.54;54.30
43772;HTU21D;59066;54.782;32.024;2022-11-14T15:35:41;4.52;54.36
43772;HTU21D;59066;54.782;32.024;2022-11-14T15:38:27;4.59;54.42
43772;HTU21D;59066;54.782;32.024;2022-11-14T15:41:29;4.61;54.45
43772;HTU21D;59066;54.782;32.024;2022-11-14T15:44:29;4.68;54.62
43772;HTU21D;59066;54.782;32.024;2022-11-14T15:47:29;4.67;54.58
43772;HTU21D;59066;54.782;32.024;2022-11-14T15:53:15;4.63;54.72
43772;HTU21D;59066;54.782;32.024;2022-11-14T15:56:02;4.58;54.81
43772;HTU21D;59066;54.782;32.024;2022-11-14T15:58:48;4.52;54.96
43772;HTU21D;59066;54.782;32.024;2022-11-14T16:01:34;4.59;54.94
43772;HTU21D;59066;54.782;32.024;2022-11-14T16:04:23;4.59;55.00
43772;HTU21D;59066;54.782;32.024;2022-11-14T16:07:15;4.58;55.13
43772;HTU21D;59066;54.782;32.024;2022-11-14T16:10:01;4.49;55.16
43772;HTU21D;59066;54.782;32.024;2022-11-14T16:12:48;4.44;55.29
43772;HTU21D;59066;54.782;32.024;2022-11-14T16:15:37;4.41;55.33
43772;HTU21D;59066;54.782;32.024;2022-11-14T16:18:22;4.32;55.49
43772;HTU21D;59066;54.782;32.024;2022-11-14T16:21:12;4.28;55.74
43772;HTU21D;59066;54.782;32.024;2022-11-14T16:24:01;4.22;55.68
43772;HTU21D;59066;54.782;32.024;2022-11-14T16:26:47;4.18;55.75
43772;HTU21D;59066;54.782;32.024;2022-11-14T16:29:33;4.10;55.82
43772;HTU21D;59066;54.782;32.024;2022-11-14T16:32:19;4.06;55.86
43772;HTU21D;59066;54.782;32.024;2022-11-14T16:35:19;4.04;56.15
43772;HTU21D;59066;54.782;32.024;2022-11-14T16:38:05;3.95;56.16
43772;HTU21D;59066;54.782;32.024;2022-11-14T16:40:51;3.91;55.99
43772;HTU21D;59066;54.782;32.024;2022-11-14T16:43:37;3.91;56.16
43772;HTU21D;59066;54.782;32.024;2022-11-14T16:46:23;3.88;56.38
43772;HTU21D;59066;54.782;32.024;2022-11-14T16:49:14;3.84;56.54
43772;HTU21D;59066;54.782;32.024;2022-11-14T16:52:00;3.87;56.66
43772;HTU21D;59066;54.782;32.024;2022-11-14T16:54:51;3.87;56.79
43772;HTU21D;59066;54.782;32.024;2022-11-14T16:57:38;3.92;56.88
43772;HTU21D;59066;54.782;32.024;2022-11-14T17:00:23;3.91;56.93
43772;HTU21D;59066;54.782;32.024;2022-11-14T17:03:10;3.89;57.14
43772;HTU21D;59066;54.782;32.024;2022-11-14T17:05:55;3.87;57.26
43772;HTU21D;59066;54.782;32.024;2022-11-14T17:08:42;3.86;57.45
43772;HTU21D;59066;54.782;32.024;2022-11-14T17:11:27;3.87;57.40
43772;HTU21D;59066;54.782;32.024;2022-11-14T17:14:14;3.83;57.59
43772;HTU21D;59066;54.782;32.024;2022-11-14T17:16:59;3.74;57.76
43772;HTU21D;59066;54.782;32.024;2022-11-14T17:19:48;3.70;57.76
43772;HTU21D;59066;54.782;32.024;2022-11-14T17:22:34;3.68;57.90
43772;HTU21D;59066;54.782;32.024;2022-11-14T17:25:21;3.70;57.87
43772;HTU21D;59066;54.782;32.024;2022-11-14T17:28:07;3.61;57.93
43772;HTU21D;59066;54.782;32.024;2022-11-14T17:30:53;3.61;57.93
43772;HTU21D;59066;54.782;32.024;2022-11-14T17:33:39;3.61;57.83
43772;HTU21D;59066;54.782;32.024;2022-11-14T17:36:26;3.48;57.93
43772;HTU21D;59066;54.782;32.024;2022-11-14T17:39:13;3.41;58.22
43772;HTU21D;59066;54.782;32.024;2022-11-14T17:41:59;3.32;58.44
43772;HTU21D;59066;54.782;32.024;2022-11-14T17:44:45;3.33;58.44
43772;HTU21D;59066;54.782;32.024;2022-11-14T17:47:30;3.28;58.65
43772;HTU21D;59066;54.782;32.024;2022-11-14T17:50:16;3.24;58.61
43772;HTU21D;59066;54.782;32.024;2022-11-14T17:53:02;3.16;58.81
43772;HTU21D;59066;54.782;32.024;2022-11-14T17:55:55;3.12;59.09
43772;HTU21D;59066;54.782;32.024;2022-11-14T17:58:42;3.02;59.25
43772;HTU21D;59066;54.782;32.024;2022-11-14T18:01:28;3.03;59.38
43772;HTU21D;59066;54.782;32.024;2022-11-14T18:04:16;3.06;58.92
43772;HTU21D;59066;54.782;32.024;2022-11-14T18:07:02;3.08;59.09
43772;HTU21D;59066;54.782;32.024;2022-11-14T18:09:48;3.11;59.07
43772;HTU21D;59066;54.782;32.024;2022-11-14T18:12:34;3.17;59.04
43772;HTU21D;59066;54.782;32.024;2022-11-14T18:15:19;3.17;59.21
43772;HTU21D;59066;54.782;32.024;2022-11-14T18:18:10;3.16;59.33
43772;HTU21D;59066;54.782;32.024;2022-11-14T18:20:57;3.21;59.40
43772;HTU21D;59066;54.782;32.024;2022-11-14T18:23:48;3.29;59.30
43772;HTU21D;59066;54.782;32.024;2022-11-14T18:26:34;3.28;59.35
43772;HTU21D;59066;54.782;32.024;2022-11-14T18:29:20;3.28;59.54
43772;HTU21D;59066;54.782;32.024;2022-11-14T18:32:06;3.33;59.54
43772;HTU21D;59066;54.782;32.024;2022-11-14T18:34:52;3.33;59.52
43772;HTU21D;59066;54.782;32.024;2022-11-14T18:37:38;3.36;59.56
43772;HTU21D;59066;54.782;32.024;2022-11-14T18:40:24;3.33;59.64
43772;HTU21D;59066;54.782;32.024;2022-11-14T18:43:10;3.38;59.77
43772;HTU21D;59066;54.782;32.024;2022-11-14T18:46:03;3.36;59.78
43772;HTU21D;59066;54.782;32.024;2022-11-14T18:48:53;3.34;59.61
43772;HTU21D;59066;54.782;32.024;2022-11-14T18:51:39;3.36;59.65
43772;HTU21D;59066;54.782;32.024;2022-11-14T18:54:26;3.29;59.58
43772;HTU21D;59066;54.782;32.024;2022-11-14T18:57:12;3.23;59.80
43772;HTU21D;59066;54.782;32.024;2022-11-14T18:59:58;3.20;59.93
43772;HTU21D;59066;54.782;32.024;2022-11-14T19:02:49;3.17;60.06
43772;HTU21D;59066;54.782;32.024;2022-11-14T19:05:35;3.18;60.06
43772;HTU21D;59066;54.782;32.024;2022-11-14T19:08:21;3.16;59.99
43772;HTU21D;59066;54.782;32.024;2022-11-14T19:11:09;3.14;60.05
43772;HTU21D;59066;54.782;32.024;2022-11-14T19:14:18;3.12;60.11
43772;HTU21D;59066;54.782;32.024;2022-11-14T19:17:04;3.14;60.12
43772;HTU21D;59066;54.782;32.024;2022-11-14T19:19:51;3.15;60.02
43772;HTU21D;59066;54.782;32.024;2022-11-14T19:22:40;3.13;59.90
43772;HTU21D;59066;54.782;32.024;2022-11-14T19:25:25;3.14;59.86
43772;HTU21D;59066;54.782;32.024;2022-11-14T19:28:11;3.14;59.96
43772;HTU21D;59066;54.782;32.024;2022-11-14T19:31:04;3.14;59.96
43772;HTU21D;59066;54.782;32.024;2022-11-14T19:33:50;3.13;59.95
43772;HTU21D;59066;54.782;32.024;2022-11-14T19:36:37;3.08;60.11